Time;durP1;ratioP1;P1;durP2;ratioP2;P2;SDS_P1;SDS_P2;PMS_P1;PMS_P2;Temp;Humidity;BMP_temperature;BMP_pressure;BME280_temperature;BME280_humidity;BME280_pressure;Samples;Min_cycle;Max_cycle;Signal;HPM_P1;HPM_P2
2022/12/24 00:02:10;;;;;;;8.70;7.80;;;;;;;;;;4957170;28;20515;-69
2022/12/24 00:04:36;;;;;;;7.88;7.28;;;;;;;;;;4961481;28;20039;-70
2022/12/24 00:07:02;;;;;;;8.73;7.60;;;;;;;;;;4965574;28;20090;-70
2022/12/24 00:09:27;;;;;;;8.90;8.02;;;;;;;;;;4973686;28;20045;-70
2022/12/24 00:11:53;;;;;;;9.02;8.23;;;;;;;;;;4960679;28;20146;-70
2022/12/24 00:14:18;;;;;;;9.18;8.35;;;;;;;;;;4969322;28;20072;-70
2022/12/24 00:16:44;;;;;;;8.90;8.15;;;;;;;;;;4968110;28;20114;-70
2022/12/24 00:19:10;;;;;;;9.43;7.65;;;;;;;;;;4966169;28;20097;-70
2022/12/24 00:21:35;;;;;;;9.05;7.45;;;;;;;;;;4960862;28;20284;-70
2022/12/24 00:24:03;;;;;;;8.00;7.30;;;;;;;;;;4966339;28;20027;-71
2022/12/24 00:26:28;;;;;;;12.00;7.22;;;;;;;;;;4971862;28;20038;-71
2022/12/24 00:28:54;;;;;;;8.18;7.00;;;;;;;;;;4960590;28;20038;-70
2022/12/24 00:31:20;;;;;;;7.80;7.10;;;;;;;;;;4963381;28;20041;-71
2022/12/24 00:33:46;;;;;;;8.45;6.82;;;;;;;;;;4972756;28;20038;-71
2022/12/24 00:36:12;;;;;;;8.25;7.65;;;;;;;;;;4967519;28;20037;-70
2022/12/24 00:38:38;;;;;;;8.02;7.45;;;;;;;;;;4960413;28;20030;-70
2022/12/24 00:41:22;;;;;;;8.00;7.28;;;;;;;;;;4971161;28;20427;-71
2022/12/24 00:44:00;;;;;;;8.50;7.55;;;;;;;;;;4970592;28;20044;-71
2022/12/24 00:46:28;;;;;;;9.45;7.38;;;;;;;;;;4967856;28;20042;-70
2022/12/24 00:48:54;;;;;;;7.75;7.15;;;;;;;;;;4958628;28;20042;-70
2022/12/24 00:51:21;;;;;;;7.82;6.90;;;;;;;;;;4969768;28;20073;-71
2022/12/24 00:53:47;;;;;;;9.07;7.45;;;;;;;;;;4966941;28;20048;-71
2022/12/24 00:56:13;;;;;;;7.45;6.93;;;;;;;;;;4962254;28;20173;-71
2022/12/24 00:58:39;;;;;;;8.10;7.50;;;;;;;;;;4963033;28;20034;-71
2022/12/24 01:01:05;;;;;;;10.32;7.68;;;;;;;;;;4966506;28;20062;-71
2022/12/24 01:03:37;;;;;;;9.27;7.43;;;;;;;;;;4965356;28;20082;-71
2022/12/24 01:06:08;;;;;;;10.48;7.32;;;;;;;;;;4957793;28;20065;-70
2022/12/24 01:08:35;;;;;;;7.57;7.07;;;;;;;;;;4973885;28;20498;-71
2022/12/24 01:11:02;;;;;;;7.68;6.95;;;;;;;;;;4964027;28;20030;-71
2022/12/24 01:13:27;;;;;;;8.85;7.07;;;;;;;;;;4964763;28;20062;-71
2022/12/24 01:15:53;;;;;;;11.13;7.35;;;;;;;;;;4973708;28;20070;-70
2022/12/24 01:18:19;;;;;;;8.63;7.55;;;;;;;;;;4972690;28;20064;-71
2022/12/24 01:20:45;;;;;;;8.50;7.75;;;;;;;;;;4968632;28;20091;-71
2022/12/24 01:23:10;;;;;;;7.25;6.75;;;;;;;;;;4970496;28;20038;-71
2022/12/24 01:25:39;;;;;;;8.25;7.45;;;;;;;;;;4976668;28;20035;-71
2022/12/24 01:28:05;;;;;;;9.75;7.15;;;;;;;;;;4974515;28;20034;-71
2022/12/24 01:30:31;;;;;;;7.95;7.18;;;;;;;;;;4966534;28;20441;-71
2022/12/24 01:32:57;;;;;;;7.45;6.72;;;;;;;;;;4971457;28;20046;-71
2022/12/24 01:35:22;;;;;;;10.80;7.63;;;;;;;;;;4976313;28;20042;-71
2022/12/24 01:37:48;;;;;;;8.57;7.20;;;;;;;;;;4967904;28;20045;-71
2022/12/24 01:43:24;;;;;;;7.40;6.90;;;;;;;;;;4965560;28;20281;-71
2022/12/24 01:46:02;;;;;;;7.28;6.57;;;;;;;;;;4969785;28;20046;-71
2022/12/24 01:48:41;;;;;;;7.32;6.70;;;;;;;;;;4962968;28;20085;-71
2022/12/24 01:51:09;;;;;;;8.27;7.32;;;;;;;;;;4968222;28;20122;-71
2022/12/24 01:53:37;;;;;;;8.82;6.85;;;;;;;;;;4967752;28;20561;-71
2022/12/24 01:56:05;;;;;;;7.60;6.97;;;;;;;;;;4964627;28;20050;-71
2022/12/24 01:58:32;;;;;;;7.75;6.95;;;;;;;;;;4970486;28;20053;-71
2022/12/24 02:00:58;;;;;;;7.90;6.85;;;;;;;;;;4961737;28;20035;-72
2022/12/24 02:03:23;;;;;;;7.22;6.57;;;;;;;;;;4965012;28;20097;-71
2022/12/24 02:05:53;;;;;;;7.63;6.93;;;;;;;;;;4964127;28;20037;-72
2022/12/24 02:08:19;;;;;;;12.50;7.18;;;;;;;;;;4969635;28;20034;-72
2022/12/24 02:10:46;;;;;;;8.25;7.45;;;;;;;;;;4968031;28;20039;-71
2022/12/24 02:13:13;;;;;;;9.50;7.70;;;;;;;;;;4966595;28;20040;-72
2022/12/24 02:15:49;;;;;;;7.20;6.70;;;;;;;;;;4962922;28;20156;-71
2022/12/24 02:18:25;;;;;;;9.00;6.95;;;;;;;;;;4965910;28;20557;-71
2022/12/24 02:21:27;;;;;;;8.50;7.63;;;;;;;;;;4962812;28;20045;-71
2022/12/24 02:24:11;;;;;;;8.20;7.32;;;;;;;;;;4965145;28;20564;-72
2022/12/24 02:26:59;;;;;;;8.93;7.82;;;;;;;;;;4964357;28;20038;-72
2022/12/24 02:29:27;;;;;;;6.97;6.47;;;;;;;;;;4959240;28;20129;-73
2022/12/24 02:32:10;;;;;;;13.13;7.45;;;;;;;;;;4966413;28;20034;-73
2022/12/24 02:34:41;;;;;;;13.10;7.63;;;;;;;;;;4966759;28;20037;-72
2022/12/24 02:37:19;;;;;;;10.85;7.55;;;;;;;;;;4961846;28;20053;-72
2022/12/24 02:39:53;;;;;;;7.78;7.07;;;;;;;;;;4963873;28;20045;-72
2022/12/24 02:42:23;;;;;;;11.93;7.18;;;;;;;;;;4966085;28;20063;-72
2022/12/24 02:44:54;;;;;;;9.30;7.28;;;;;;;;;;4960802;28;20874;-73
2022/12/24 02:47:23;;;;;;;11.38;7.05;;;;;;;;;;4962466;28;20041;-70
2022/12/24 02:49:48;;;;;;;10.38;6.97;;;;;;;;;;4965001;28;20097;-72
2022/12/24 02:52:32;;;;;;;8.02;7.30;;;;;;;;;;4964979;28;20098;-72
2022/12/24 02:55:06;;;;;;;8.50;7.22;;;;;;;;;;4964527;28;20043;-72
2022/12/24 02:57:31;;;;;;;12.38;7.50;;;;;;;;;;4970751;28;20031;-72
2022/12/24 03:00:07;;;;;;;11.57;7.25;;;;;;;;;;4969965;28;20042;-72
2022/12/24 03:02:45;;;;;;;8.73;7.07;;;;;;;;;;4966554;28;20125;-72
2022/12/24 03:05:22;;;;;;;9.40;7.20;;;;;;;;;;4974173;28;20038;-72
2022/12/24 03:08:13;;;;;;;7.88;7.18;;;;;;;;;;4964027;28;20470;-72
2022/12/24 03:11:00;;;;;;;9.48;7.03;;;;;;;;;;4976091;28;20030;-72
2022/12/24 03:13:27;;;;;;;7.95;7.13;;;;;;;;;;4972601;28;20038;-72
2022/12/24 03:15:53;;;;;;;12.10;7.22;;;;;;;;;;4972159;28;20161;-72
2022/12/24 03:18:29;;;;;;;8.13;7.30;;;;;;;;;;4968784;28;20129;-72
2022/12/24 03:21:05;;;;;;;10.80;7.28;;;;;;;;;;4977009;28;20030;-72
2022/12/24 03:23:31;;;;;;;7.68;6.88;;;;;;;;;;4974883;28;20038;-72
2022/12/24 03:26:00;;;;;;;12.57;7.68;;;;;;;;;;4972482;28;20038;-72
2022/12/24 03:28:27;;;;;;;10.77;6.80;;;;;;;;;;4968138;28;20158;-72
2022/12/24 03:30:53;;;;;;;7.60;6.72;;;;;;;;;;4973126;28;20050;-72
2022/12/24 03:33:19;;;;;;;9.43;7.63;;;;;;;;;;4980549;28;20039;-72
2022/12/24 03:35:45;;;;;;;9.65;7.00;;;;;;;;;;4973994;28;20446;-72
2022/12/24 03:38:10;;;;;;;9.05;7.05;;;;;;;;;;4967708;28;20039;-72
2022/12/24 03:40:36;;;;;;;9.02;6.75;;;;;;;;;;4976703;28;20045;-72
2022/12/24 03:43:01;;;;;;;7.82;6.88;;;;;;;;;;4977541;28;20030;-73
2022/12/24 03:45:27;;;;;;;13.30;7.25;;;;;;;;;;4966892;28;20034;-72
2022/12/24 03:47:52;;;;;;;8.82;6.60;;;;;;;;;;4973776;28;20089;-72
2022/12/24 03:50:18;;;;;;;8.80;6.90;;;;;;;;;;4976165;28;20038;-72
2022/12/24 03:52:44;;;;;;;8.65;6.97;;;;;;;;;;4976016;28;20082;-73
2022/12/24 03:55:09;;;;;;;9.38;7.60;;;;;;;;;;4967588;28;20034;-73
2022/12/24 03:57:35;;;;;;;11.90;7.03;;;;;;;;;;4972538;28;20506;-72
2022/12/24 04:00:01;;;;;;;17.08;9.82;;;;;;;;;;4975198;28;20565;-72
2022/12/24 04:02:26;;;;;;;13.55;7.18;;;;;;;;;;4966840;28;20077;-72
2022/12/24 04:04:52;;;;;;;6.95;6.40;;;;;;;;;;4967162;28;20042;-73
2022/12/24 04:07:18;;;;;;;8.15;6.55;;;;;;;;;;4974576;28;20401;-72
2022/12/24 04:09:43;;;;;;;7.68;6.90;;;;;;;;;;4965604;28;20042;-73
2022/12/24 04:12:09;;;;;;;12.02;7.18;;;;;;;;;;4967332;28;20034;-72
2022/12/24 04:14:34;;;;;;;11.23;7.05;;;;;;;;;;4963716;28;20034;-72
2022/12/24 04:17:00;;;;;;;9.63;7.30;;;;;;;;;;4968531;28;20479;-72
2022/12/24 04:19:25;;;;;;;8.82;7.45;;;;;;;;;;4968396;28;20034;-72
2022/12/24 04:21:51;;;;;;;9.90;6.82;;;;;;;;;;4961704;28;20449;-72
2022/12/24 04:24:16;;;;;;;7.97;6.85;;;;;;;;;;4961291;28;20077;-72
2022/12/24 04:26:42;;;;;;;7.38;6.57;;;;;;;;;;4971648;28;20104;-72
2022/12/24 04:29:08;;;;;;;7.13;6.50;;;;;;;;;;4975569;28;20038;-72
2022/12/24 04:31:33;;;;;;;10.93;7.20;;;;;;;;;;4967789;28;20049;-72
2022/12/24 04:33:59;;;;;;;7.50;6.57;;;;;;;;;;4961999;28;20221;-71
2022/12/24 04:36:24;;;;;;;7.50;6.80;;;;;;;;;;4970258;28;20162;-72
2022/12/24 04:38:50;;;;;;;8.35;7.25;;;;;;;;;;4961678;28;20039;-72
2022/12/24 04:41:18;;;;;;;7.85;6.55;;;;;;;;;;4962368;28;20637;-72
2022/12/24 04:43:44;;;;;;;8.18;7.28;;;;;;;;;;4960933;28;20118;-72
2022/12/24 04:46:19;;;;;;;9.50;6.97;;;;;;;;;;4963809;28;20116;-72
2022/12/24 04:48:49;;;;;;;7.93;7.22;;;;;;;;;;4966338;28;20069;-72
2022/12/24 04:51:17;;;;;;;7.78;6.72;;;;;;;;;;4962991;28;20094;-72
2022/12/24 04:53:43;;;;;;;12.02;8.00;;;;;;;;;;4963750;28;20038;-72
2022/12/24 04:56:15;;;;;;;8.05;7.45;;;;;;;;;;4967534;28;20093;-72
2022/12/24 04:58:41;;;;;;;8.15;7.40;;;;;;;;;;4962936;28;20113;-72
2022/12/24 05:01:11;;;;;;;8.65;6.95;;;;;;;;;;4963917;28;20043;-72
2022/12/24 05:03:36;;;;;;;8.52;6.60;;;;;;;;;;4965913;28;20035;-72
2022/12/24 05:06:04;;;;;;;7.15;6.57;;;;;;;;;;4964845;28;20068;-72
2022/12/24 05:08:30;;;;;;;13.30;7.53;;;;;;;;;;4962009;28;20046;-72
2022/12/24 05:10:57;;;;;;;9.25;7.90;;;;;;;;;;4965676;28;20394;-72
2022/12/24 05:13:24;;;;;;;8.88;7.18;;;;;;;;;;4959618;28;20038;-72
2022/12/24 05:15:49;;;;;;;11.20;7.55;;;;;;;;;;4960570;28;20038;-72
2022/12/24 05:18:15;;;;;;;10.00;7.57;;;;;;;;;;4966182;28;20041;-72
2022/12/24 05:20:41;;;;;;;8.15;7.35;;;;;;;;;;4969531;28;20490;-72
2022/12/24 05:28:35;;;;;;;11.57;7.45;;;;;;;;;;4961366;28;20097;-72
2022/12/24 05:31:00;;;;;;;9.68;7.35;;;;;;;;;;4960144;28;20039;-72
2022/12/24 05:33:26;;;;;;;8.27;6.90;;;;;;;;;;4964421;28;20518;-72
2022/12/24 05:35:51;;;;;;;8.25;7.68;;;;;;;;;;4968978;28;20157;-72
2022/12/24 05:38:17;;;;;;;9.65;7.57;;;;;;;;;;4960742;28;20039;-72
2022/12/24 05:40:43;;;;;;;9.07;7.50;;;;;;;;;;4961964;28;20093;-72
2022/12/24 05:43:08;;;;;;;11.35;7.80;;;;;;;;;;4969051;28;20051;-72
2022/12/24 05:45:34;;;;;;;7.63;6.93;;;;;;;;;;4958609;28;20696;-72
2022/12/24 05:47:59;;;;;;;11.05;7.43;;;;;;;;;;4959915;28;20066;-72
2022/12/24 05:50:25;;;;;;;11.02;7.57;;;;;;;;;;4970390;28;20027;-72
2022/12/24 05:53:03;;;;;;;8.48;7.57;;;;;;;;;;4965871;28;20044;-73
2022/12/24 05:55:29;;;;;;;9.77;7.50;;;;;;;;;;4956580;28;20039;-73
2022/12/24 05:57:54;;;;;;;8.35;7.50;;;;;;;;;;4964045;28;20050;-73
2022/12/24 06:00:20;;;;;;;11.00;7.57;;;;;;;;;;4967845;28;20049;-71
2022/12/24 06:02:46;;;;;;;8.60;7.30;;;;;;;;;;4963093;28;20482;-72
2022/12/24 06:05:11;;;;;;;7.25;6.75;;;;;;;;;;4967360;28;20090;-71
2022/12/24 06:07:37;;;;;;;9.35;7.15;;;;;;;;;;4973499;28;20466;-73
2022/12/24 06:10:03;;;;;;;13.52;6.97;;;;;;;;;;4964182;28;20046;-73
2022/12/24 06:12:29;;;;;;;8.52;7.60;;;;;;;;;;4963736;28;20034;-73
2022/12/24 06:14:54;;;;;;;8.18;7.40;;;;;;;;;;4965603;28;20529;-73
2022/12/24 06:17:20;;;;;;;8.25;7.22;;;;;;;;;;4967215;28;20545;-73
2022/12/24 06:19:45;;;;;;;9.02;7.90;;;;;;;;;;4964840;28;20113;-73
2022/12/24 06:22:11;;;;;;;8.43;7.07;;;;;;;;;;4970340;28;20031;-73
2022/12/24 06:24:37;;;;;;;8.25;7.47;;;;;;;;;;4966377;28;20548;-72
2022/12/24 06:27:02;;;;;;;8.60;7.80;;;;;;;;;;4963084;28;20034;-72
2022/12/24 06:29:28;;;;;;;8.45;6.70;;;;;;;;;;4976394;28;20039;-72
2022/12/24 06:31:53;;;;;;;7.80;6.75;;;;;;;;;;4973211;28;20031;-72
2022/12/24 06:34:19;;;;;;;7.28;6.60;;;;;;;;;;4965931;28;20093;-72
2022/12/24 06:36:44;;;;;;;7.60;7.00;;;;;;;;;;4962092;28;20043;-72
2022/12/24 06:39:10;;;;;;;10.90;6.80;;;;;;;;;;4971266;28;20133;-72
2022/12/24 06:41:36;;;;;;;7.63;6.72;;;;;;;;;;4968024;28;20041;-72
2022/12/24 06:44:01;;;;;;;10.98;6.97;;;;;;;;;;4962244;28;20038;-72
2022/12/24 06:46:27;;;;;;;9.27;6.93;;;;;;;;;;4968703;28;20408;-73
2022/12/24 06:48:53;;;;;;;10.18;7.25;;;;;;;;;;4963049;28;20774;-73
2022/12/24 06:51:20;;;;;;;8.60;6.93;;;;;;;;;;4961081;28;20054;-72
2022/12/24 06:53:47;;;;;;;9.52;6.80;;;;;;;;;;4972376;28;20038;-72
2022/12/24 06:56:13;;;;;;;7.60;6.65;;;;;;;;;;4955514;28;20443;-72
2022/12/24 06:58:39;;;;;;;11.77;7.22;;;;;;;;;;4961177;28;20034;-77
2022/12/24 07:01:07;;;;;;;7.18;6.57;;;;;;;;;;4971402;28;20034;-76
2022/12/24 07:03:33;;;;;;;7.82;7.13;;;;;;;;;;4968972;28;20116;-76
2022/12/24 07:05:59;;;;;;;7.95;6.63;;;;;;;;;;4963592;28;20039;-76
2022/12/24 07:08:25;;;;;;;7.20;6.50;;;;;;;;;;4963379;28;20030;-76
2022/12/24 07:10:52;;;;;;;9.63;7.32;;;;;;;;;;4971178;28;20045;-77
2022/12/24 07:13:17;;;;;;;8.18;7.22;;;;;;;;;;4969745;28;20114;-77
2022/12/24 07:15:43;;;;;;;7.70;6.82;;;;;;;;;;4960881;28;20174;-77
2022/12/24 07:18:10;;;;;;;8.95;6.75;;;;;;;;;;4965045;28;20033;-75
2022/12/24 07:20:36;;;;;;;11.13;7.10;;;;;;;;;;4972903;28;20564;-76
2022/12/24 07:23:02;;;;;;;8.73;7.10;;;;;;;;;;4965200;28;20142;-76
2022/12/24 07:25:28;;;;;;;7.32;6.63;;;;;;;;;;4968220;28;20414;-76
2022/12/24 07:27:53;;;;;;;11.77;6.78;;;;;;;;;;4969951;28;20054;-76
2022/12/24 07:30:19;;;;;;;9.27;6.88;;;;;;;;;;4964145;28;20509;-76
2022/12/24 07:32:44;;;;;;;10.60;7.30;;;;;;;;;;4965729;28;20074;-76
2022/12/24 07:35:10;;;;;;;9.00;7.22;;;;;;;;;;4958573;28;20038;-76
2022/12/24 07:37:36;;;;;;;7.82;7.10;;;;;;;;;;4966147;28;20664;-76
2022/12/24 07:40:05;;;;;;;8.77;6.88;;;;;;;;;;4957884;28;20039;-76
2022/12/24 07:42:30;;;;;;;7.75;6.97;;;;;;;;;;4954521;28;20122;-75
2022/12/24 07:44:56;;;;;;;11.10;7.68;;;;;;;;;;4957345;28;20075;-76
2022/12/24 07:47:21;;;;;;;7.90;7.18;;;;;;;;;;4958156;28;20070;-76
2022/12/24 07:49:47;;;;;;;9.15;7.28;;;;;;;;;;4957852;28;20038;-77
2022/12/24 07:52:13;;;;;;;12.63;7.30;;;;;;;;;;4955014;28;20059;-77
2022/12/24 07:54:38;;;;;;;9.95;7.43;;;;;;;;;;4958895;28;20041;-76
2022/12/24 07:57:04;;;;;;;11.75;8.15;;;;;;;;;;4959628;28;20509;-78
2022/12/24 07:59:29;;;;;;;10.65;8.10;;;;;;;;;;4969779;28;20031;-77
2022/12/24 08:01:55;;;;;;;11.38;7.72;;;;;;;;;;4959965;28;20692;-77
2022/12/24 08:04:21;;;;;;;13.57;7.82;;;;;;;;;;4967291;28;20042;-77
2022/12/24 08:06:46;;;;;;;9.73;7.97;;;;;;;;;;4967996;28;20069;-77
2022/12/24 08:09:13;;;;;;;13.55;8.27;;;;;;;;;;4966914;28;20467;-77
2022/12/24 08:11:38;;;;;;;10.73;7.38;;;;;;;;;;4959441;28;20029;-78
2022/12/24 08:14:04;;;;;;;13.63;7.75;;;;;;;;;;4966562;28;20055;-77
2022/12/24 08:16:29;;;;;;;13.07;7.45;;;;;;;;;;4967377;28;20030;-77
2022/12/24 08:18:55;;;;;;;10.35;7.20;;;;;;;;;;4964764;28;20066;-78
2022/12/24 08:21:21;;;;;;;9.25;6.97;;;;;;;;;;4965017;28;20473;-78
2022/12/24 08:23:46;;;;;;;13.20;7.32;;;;;;;;;;4969483;28;20538;-77
2022/12/24 08:26:12;;;;;;;9.93;6.85;;;;;;;;;;4965120;28;20805;-76
2022/12/24 08:28:38;;;;;;;9.77;7.10;;;;;;;;;;4970643;28;20038;-77
2022/12/24 08:31:04;;;;;;;13.38;7.35;;;;;;;;;;4973734;28;20038;-77
2022/12/24 08:33:31;;;;;;;10.02;7.13;;;;;;;;;;4964268;28;20035;-76
2022/12/24 08:35:57;;;;;;;10.60;7.88;;;;;;;;;;4965859;28;20046;-77
2022/12/24 08:38:23;;;;;;;8.50;7.40;;;;;;;;;;4966291;28;20142;-77
2022/12/24 08:40:49;;;;;;;10.20;7.47;;;;;;;;;;4969477;28;20041;-76
2022/12/24 08:43:16;;;;;;;14.27;6.80;;;;;;;;;;4963369;28;20027;-77
2022/12/24 08:45:42;;;;;;;11.98;7.30;;;;;;;;;;4986220;28;20031;-75
2022/12/24 08:48:09;;;;;;;7.47;6.80;;;;;;;;;;4962827;28;20061;-76
2022/12/24 08:50:39;;;;;;;13.02;7.22;;;;;;;;;;4965754;28;20038;-77
2022/12/24 08:53:05;;;;;;;10.88;7.43;;;;;;;;;;4968006;28;20042;-77
2022/12/24 08:55:31;;;;;;;11.32;7.32;;;;;;;;;;4984676;28;20047;-76
2022/12/24 08:57:58;;;;;;;14.88;7.05;;;;;;;;;;4967760;28;20102;-76
2022/12/24 09:00:24;;;;;;;8.48;7.60;;;;;;;;;;4986697;28;20029;-77
2022/12/24 09:02:50;;;;;;;8.20;6.68;;;;;;;;;;4946354;28;20050;-77
2022/12/24 09:05:16;;;;;;;8.25;7.20;;;;;;;;;;4974971;28;20042;-77
2022/12/24 09:07:43;;;;;;;14.23;7.30;;;;;;;;;;4989371;28;20042;-77
2022/12/24 09:10:10;;;;;;;12.05;8.10;;;;;;;;;;4980396;28;20113;-74
2022/12/24 09:12:37;;;;;;;13.85;7.38;;;;;;;;;;4981182;28;20057;-76
2022/12/24 09:15:04;;;;;;;7.68;7.07;;;;;;;;;;4974492;28;20050;-76
2022/12/24 09:17:30;;;;;;;14.57;7.65;;;;;;;;;;4974925;28;20047;-76
2022/12/24 09:19:56;;;;;;;13.07;7.22;;;;;;;;;;4978457;28;20097;-76
2022/12/24 09:22:23;;;;;;;11.43;6.78;;;;;;;;;;4985712;28;20035;-75
2022/12/24 09:24:48;;;;;;;14.90;6.80;;;;;;;;;;4977289;28;20126;-76
2022/12/24 09:27:14;;;;;;;10.82;7.25;;;;;;;;;;4965600;28;20039;-76
2022/12/24 09:29:40;;;;;;;15.93;7.55;;;;;;;;;;4962042;28;20022;-77
2022/12/24 09:32:07;;;;;;;13.63;7.43;;;;;;;;;;4975905;28;20031;-76
2022/12/24 09:34:33;;;;;;;12.18;6.95;;;;;;;;;;4956200;28;20053;-75
2022/12/24 09:37:01;;;;;;;7.82;7.10;;;;;;;;;;4955663;28;20050;-75
2022/12/24 09:39:27;;;;;;;11.70;6.72;;;;;;;;;;4971590;28;20077;-75
2022/12/24 09:42:16;;;;;;;8.57;7.60;;;;;;;;;;4976604;28;20090;-75
2022/12/24 09:44:42;;;;;;;;;;;;;;;;;;4990842;28;20065;-75
2022/12/24 09:48:03;;;;;;;10.18;7.10;;;;;;;;;;4949742;28;19930;-75
2022/12/24 09:50:44;;;;;;;11.30;6.97;;;;;;;;;;4941679;29;20067;-75
2022/12/24 09:53:39;;;;;;;9.90;7.70;;;;;;;;;;4914580;29;20048;-75
2022/12/24 09:56:39;;;;;;;12.93;7.25;;;;;;;;;;4930809;29;20050;-76
2022/12/24 09:59:10;;;;;;;10.88;8.30;;;;;;;;;;4923771;29;20048;-75
2022/12/24 10:01:51;;;;;;;11.38;7.93;;;;;;;;;;4908295;29;20055;-76
2022/12/24 10:04:21;;;;;;;10.18;7.72;;;;;;;;;;4927355;29;20054;-77
2022/12/24 10:07:12;;;;;;;9.38;7.65;;;;;;;;;;4923986;29;20048;-76
2022/12/24 10:09:41;;;;;;;13.00;7.97;;;;;;;;;;4929474;29;20035;-77
2022/12/24 10:12:37;;;;;;;9.95;7.82;;;;;;;;;;4942204;29;20048;-78
2022/12/24 10:15:39;;;;;;;10.52;7.07;;;;;;;;;;4924664;29;20044;-77
2022/12/24 10:18:26;;;;;;;16.70;7.70;;;;;;;;;;4937080;29;20051;-77
2022/12/24 10:20:59;;;;;;;12.95;7.22;;;;;;;;;;4946413;29;20103;-79
2022/12/24 10:23:45;;;;;;;11.63;7.60;;;;;;;;;;4947262;28;20048;-78
2022/12/24 10:26:14;;;;;;;9.73;7.88;;;;;;;;;;4989663;28;20041;-77
2022/12/24 10:28:40;;;;;;;16.20;8.73;;;;;;;;;;4995300;28;20035;-76
2022/12/24 10:31:07;;;;;;;11.65;8.55;;;;;;;;;;4986979;28;20045;-76
2022/12/24 10:33:45;;;;;;;14.68;8.75;;;;;;;;;;4984382;28;20069;-76
2022/12/24 10:36:19;;;;;;;10.93;7.90;;;;;;;;;;4992926;28;20027;-76
2022/12/24 10:38:46;;;;;;;13.00;7.88;;;;;;;;;;4990082;28;20077;-76
2022/12/24 10:41:13;;;;;;;11.43;8.00;;;;;;;;;;4994328;28;20034;-76
2022/12/24 10:43:41;;;;;;;11.10;7.50;;;;;;;;;;4972357;28;20047;-77
2022/12/24 10:46:23;;;;;;;12.77;6.80;;;;;;;;;;4994527;28;20067;-76
2022/12/24 10:48:56;;;;;;;10.25;7.43;;;;;;;;;;4980559;28;20049;-75
2022/12/24 10:51:28;;;;;;;10.68;7.75;;;;;;;;;;4994304;28;20050;-76
2022/12/24 10:54:22;;;;;;;10.00;7.28;;;;;;;;;;4990623;28;20026;-76
2022/12/24 10:56:54;;;;;;;10.85;7.47;;;;;;;;;;4978141;28;20050;-80
2022/12/24 10:59:24;;;;;;;10.93;7.53;;;;;;;;;;4992053;28;20082;-79
2022/12/24 11:01:52;;;;;;;10.82;7.25;;;;;;;;;;4990623;28;20035;-78
2022/12/24 11:04:26;;;;;;;8.68;7.68;;;;;;;;;;4994195;28;20069;-78
2022/12/24 11:06:55;;;;;;;9.00;7.80;;;;;;;;;;4997538;28;20037;-78
2022/12/24 11:09:28;;;;;;;11.18;7.55;;;;;;;;;;4987192;28;20030;-78
2022/12/24 11:11:56;;;;;;;14.70;7.90;;;;;;;;;;4985193;28;20031;-78
2022/12/24 11:14:23;;;;;;;8.82;7.30;;;;;;;;;;4993689;28;20037;-78
2022/12/24 11:16:51;;;;;;;10.25;6.93;;;;;;;;;;4991074;28;20058;-78
2022/12/24 11:19:23;;;;;;;7.93;7.13;;;;;;;;;;4993322;28;20041;-77
2022/12/24 11:21:58;;;;;;;10.90;7.60;;;;;;;;;;4981235;28;20031;-79
2022/12/24 11:24:36;;;;;;;13.30;7.28;;;;;;;;;;4969759;28;20038;-78
2022/12/24 11:27:29;;;;;;;8.65;6.65;;;;;;;;;;4989344;28;20051;-78
2022/12/24 11:30:13;;;;;;;15.23;7.05;;;;;;;;;;4988124;28;20383;-79
2022/12/24 11:32:41;;;;;;;9.27;6.55;;;;;;;;;;4994345;28;20036;-78
2022/12/24 11:35:15;;;;;;;8.65;6.50;;;;;;;;;;4998411;28;20046;-78
2022/12/24 11:37:41;;;;;;;10.52;6.65;;;;;;;;;;4997987;28;20053;-78
2022/12/24 11:40:22;;;;;;;7.18;6.50;;;;;;;;;;4973771;28;20043;-78
2022/12/24 11:42:52;;;;;;;15.23;7.38;;;;;;;;;;4991048;28;20050;-78
2022/12/24 11:45:18;;;;;;;17.17;6.78;;;;;;;;;;4975928;28;20043;-78
2022/12/24 11:47:45;;;;;;;15.75;6.82;;;;;;;;;;4971416;28;20038;-78
2022/12/24 11:50:30;;;;;;;10.35;6.60;;;;;;;;;;4975055;28;20043;-79
2022/12/24 11:53:01;;;;;;;8.77;6.68;;;;;;;;;;4977109;28;20034;-78
2022/12/24 11:55:44;;;;;;;14.05;8.10;;;;;;;;;;4970774;28;20031;-77
2022/12/24 11:58:27;;;;;;;14.05;7.10;;;;;;;;;;4971419;28;20094;-78
2022/12/24 12:01:01;;;;;;;11.60;7.60;;;;;;;;;;4970689;28;20780;-78
2022/12/24 12:03:34;;;;;;;13.27;7.13;;;;;;;;;;4976176;28;20046;-78
2022/12/24 12:06:04;;;;;;;17.60;7.15;;;;;;;;;;4968275;28;20487;-76
2022/12/24 12:08:32;;;;;;;10.52;6.57;;;;;;;;;;4964746;28;20106;-77
2022/12/24 12:10:58;;;;;;;7.80;6.43;;;;;;;;;;4962420;28;20097;-78
2022/12/24 12:13:32;;;;;;;7.32;6.55;;;;;;;;;;4973160;28;20073;-77
2022/12/24 12:16:15;;;;;;;11.32;8.52;;;;;;;;;;4969202;28;20035;-77
2022/12/24 12:18:48;;;;;;;12.35;6.72;;;;;;;;;;4966440;28;20042;-76
2022/12/24 12:21:17;;;;;;;8.52;7.22;;;;;;;;;;4973266;28;20042;-80
2022/12/24 12:23:48;;;;;;;10.95;6.90;;;;;;;;;;4976174;28;20584;-77
2022/12/24 12:26:24;;;;;;;8.23;6.82;;;;;;;;;;4970876;28;20042;-77
2022/12/24 12:28:54;;;;;;;7.40;6.63;;;;;;;;;;4976111;28;20122;-78
2022/12/24 12:31:37;;;;;;;9.77;7.15;;;;;;;;;;4978111;28;20450;-78
2022/12/24 12:34:05;;;;;;;12.45;6.75;;;;;;;;;;4968585;28;20797;-78
2022/12/24 12:37:01;;;;;;;9.30;6.90;;;;;;;;;;4982206;28;20043;-79
2022/12/24 12:39:30;;;;;;;8.40;7.60;;;;;;;;;;4978611;28;20030;-79
2022/12/24 12:42:13;;;;;;;11.40;6.80;;;;;;;;;;4977532;28;20549;-78
2022/12/24 12:45:05;;;;;;;8.30;7.50;;;;;;;;;;4966445;28;20735;-77
2022/12/24 12:47:36;;;;;;;13.95;7.60;;;;;;;;;;4977179;28;20557;-78
2022/12/24 12:50:13;;;;;;;15.82;7.93;;;;;;;;;;4972062;28;20110;-78
2022/12/24 12:52:54;;;;;;;12.13;7.63;;;;;;;;;;4970902;28;20049;-76
2022/12/24 12:55:37;;;;;;;13.60;7.13;;;;;;;;;;4966078;28;20541;-78
2022/12/24 12:58:12;;;;;;;11.68;8.15;;;;;;;;;;4967144;28;20042;-75
2022/12/24 13:00:41;;;;;;;12.38;7.78;;;;;;;;;;4968212;28;20089;-77
2022/12/24 13:03:32;;;;;;;10.38;7.35;;;;;;;;;;4966898;28;21256;-77
2022/12/24 13:06:10;;;;;;;9.05;7.03;;;;;;;;;;4966161;28;20089;-78
2022/12/24 13:08:36;;;;;;;9.57;6.75;;;;;;;;;;4968125;28;20486;-78
2022/12/24 13:11:35;;;;;;;12.98;7.45;;;;;;;;;;4960505;28;20039;-78
2022/12/24 13:14:15;;;;;;;10.00;7.38;;;;;;;;;;4969036;28;20088;-77
2022/12/24 13:17:20;;;;;;;11.80;7.50;;;;;;;;;;4969826;28;20049;-77
2022/12/24 13:19:58;;;;;;;13.75;7.75;;;;;;;;;;4967725;28;20043;-74
2022/12/24 13:22:23;;;;;;;11.18;7.18;;;;;;;;;;4975686;28;20506;-77
2022/12/24 13:24:52;;;;;;;8.93;6.80;;;;;;;;;;4977523;28;20129;-78
2022/12/24 13:27:23;;;;;;;9.10;7.07;;;;;;;;;;4971152;28;20109;-74
2022/12/24 13:30:00;;;;;;;10.70;7.88;;;;;;;;;;4969076;28;20293;-76
2022/12/24 13:32:27;;;;;;;11.48;7.57;;;;;;;;;;4974691;28;20035;-75
2022/12/24 13:34:55;;;;;;;16.85;7.43;;;;;;;;;;4971731;28;20161;-75
2022/12/24 13:37:30;;;;;;;9.07;7.45;;;;;;;;;;4969838;28;20035;-75
2022/12/24 13:40:25;;;;;;;11.45;7.45;;;;;;;;;;4964393;28;20042;-75
2022/12/24 13:43:08;;;;;;;14.18;6.97;;;;;;;;;;4977783;28;20066;-75
2022/12/24 13:45:37;;;;;;;9.93;7.20;;;;;;;;;;4976397;28;20125;-77
2022/12/24 13:48:06;;;;;;;11.52;7.72;;;;;;;;;;4973062;28;20046;-77
2022/12/24 13:50:44;;;;;;;12.20;7.90;;;;;;;;;;4965604;28;20047;-76
2022/12/24 13:53:46;;;;;;;19.08;8.63;;;;;;;;;;4970451;28;20072;-77
2022/12/24 13:56:12;;;;;;;14.32;7.85;;;;;;;;;;4961789;28;20039;-76
2022/12/24 13:58:41;;;;;;;12.90;8.82;;;;;;;;;;4962353;28;20117;-77
2022/12/24 14:01:12;;;;;;;;;;;;;;;;;;4964283;28;20051;-76
2022/12/24 14:03:45;;;;;;;9.27;7.25;;;;;;;;;;4964835;28;20009;-76
2022/12/24 14:06:32;;;;;;;10.88;7.20;;;;;;;;;;4959379;28;20039;-76
2022/12/24 14:09:28;;;;;;;10.20;7.03;;;;;;;;;;4945333;28;20121;-76
2022/12/24 14:12:02;;;;;;;12.00;7.95;;;;;;;;;;4883022;29;20191;-76
2022/12/24 14:14:31;;;;;;;12.82;7.43;;;;;;;;;;4867690;29;20131;-76
2022/12/24 14:17:13;;;;;;;11.35;7.00;;;;;;;;;;4899024;29;20588;-76
2022/12/24 14:19:45;;;;;;;13.45;8.05;;;;;;;;;;4897960;29;20044;-77
2022/12/24 14:22:19;;;;;;;13.02;8.15;;;;;;;;;;4902382;29;20060;-76
2022/12/24 14:24:55;;;;;;;11.48;7.72;;;;;;;;;;4904107;29;20040;-76
2022/12/24 14:27:42;;;;;;;12.85;8.02;;;;;;;;;;4900254;29;20044;-76
2022/12/24 14:30:22;;;;;;;15.77;7.90;;;;;;;;;;4903705;29;20566;-76
2022/12/24 14:32:49;;;;;;;11.43;7.63;;;;;;;;;;4909156;29;20050;-76
2022/12/24 14:35:21;;;;;;;17.70;8.73;;;;;;;;;;4886556;29;20056;-76
2022/12/24 14:37:57;;;;;;;11.35;7.88;;;;;;;;;;4904153;29;20059;-76
2022/12/24 14:40:29;;;;;;;13.73;8.05;;;;;;;;;;4904664;29;20463;-75
2022/12/24 14:43:06;;;;;;;15.15;8.40;;;;;;;;;;4904719;29;20915;-76
2022/12/24 14:46:10;;;;;;;11.18;9.23;;;;;;;;;;4904365;29;20048;-76
2022/12/24 14:48:39;;;;;;;14.48;7.97;;;;;;;;;;4946890;28;20053;-76
2022/12/24 14:51:30;;;;;;;12.73;7.30;;;;;;;;;;4974519;28;20049;-76
2022/12/24 14:54:18;;;;;;;11.50;7.13;;;;;;;;;;4966287;28;20041;-76
2022/12/24 14:56:43;;;;;;;12.40;7.10;;;;;;;;;;4968578;28;20031;-76
2022/12/24 14:59:17;;;;;;;10.63;7.97;;;;;;;;;;4962447;28;20690;-75
2022/12/24 15:01:43;;;;;;;11.05;8.88;;;;;;;;;;4968679;28;20545;-75
2022/12/24 15:04:08;;;;;;;11.55;7.97;;;;;;;;;;4968802;28;20046;-75
2022/12/24 15:06:55;;;;;;;16.73;8.82;;;;;;;;;;4965226;28;20490;-75
2022/12/24 15:09:25;;;;;;;14.68;7.63;;;;;;;;;;4974668;28;20044;-74